sensor_id;sensor_type;location;lat;lon;timestamp;temperature;humidity
15834;DHT22;8017;50.812;4.934;2023-01-25T00:01:12;1.80;99.90
15834;DHT22;8017;50.812;4.934;2023-01-25T00:04:13;1.80;99.90
15834;DHT22;8017;50.812;4.934;2023-01-25T00:07:17;1.70;99.90
15834;DHT22;8017;50.812;4.934;2023-01-25T00:10:19;1.70;99.90
15834;DHT22;8017;50.812;4.934;2023-01-25T00:13:21;1.70;99.90
15834;DHT22;8017;50.812;4.934;2023-01-25T00:16:23;1.70;99.90
15834;DHT22;8017;50.812;4.934;2023-01-25T00:19:25;1.70;99.90
15834;DHT22;8017;50.812;4.934;2023-01-25T00:22:29;1.70;99.90
15834;DHT22;8017;50.812;4.934;2023-01-25T00:25:31;1.80;99.90
15834;DHT22;8017;50.812;4.934;2023-01-25T00:28:33;1.70;99.90
15834;DHT22;8017;50.812;4.934;2023-01-25T00:31:44;1.70;99.90
15834;DHT22;8017;50.812;4.934;2023-01-25T00:34:47;1.80;99.90
15834;DHT22;8017;50.812;4.934;2023-01-25T00:37:52;1.80;99.90
15834;DHT22;8017;50.812;4.934;2023-01-25T00:40:54;1.70;99.90
15834;DHT22;8017;50.812;4.934;2023-01-25T00:43:56;1.70;99.90
15834;DHT22;8017;50.812;4.934;2023-01-25T00:46:58;1.80;99.90
15834;DHT22;8017;50.812;4.934;2023-01-25T00:50:00;1.80;99.90
15834;DHT22;8017;50.812;4.934;2023-01-25T00:53:03;1.80;99.90
15834;DHT22;8017;50.812;4.934;2023-01-25T00:56:06;1.70;99.90
15834;DHT22;8017;50.812;4.934;2023-01-25T00:59:08;1.80;99.90
15834;DHT22;8017;50.812;4.934;2023-01-25T01:02:11;1.80;99.90
15834;DHT22;8017;50.812;4.934;2023-01-25T01:05:13;1.80;99.90
15834;DHT22;8017;50.812;4.934;2023-01-25T01:08:16;1.80;99.90
15834;DHT22;8017;50.812;4.934;2023-01-25T01:11:18;1.80;99.90
15834;DHT22;8017;50.812;4.934;2023-01-25T01:14:21;1.70;99.90
15834;DHT22;8017;50.812;4.934;2023-01-25T01:17:24;1.60;99.90
15834;DHT22;8017;50.812;4.934;2023-01-25T01:20:25;1.60;99.90
15834;DHT22;8017;50.812;4.934;2023-01-25T01:23:29;1.60;99.90
15834;DHT22;8017;50.812;4.934;2023-01-25T01:26:31;1.60;99.90
15834;DHT22;8017;50.812;4.934;2023-01-25T01:29:33;1.50;99.90
15834;DHT22;8017;50.812;4.934;2023-01-25T01:32:35;1.50;99.90
15834;DHT22;8017;50.812;4.934;2023-01-25T01:35:37;1.50;99.90
15834;DHT22;8017;50.812;4.934;2023-01-25T01:38:41;1.50;99.90
15834;DHT22;8017;50.812;4.934;2023-01-25T01:41:43;1.50;99.90
15834;DHT22;8017;50.812;4.934;2023-01-25T01:44:47;1.40;99.90
15834;DHT22;8017;50.812;4.934;2023-01-25T01:47:50;1.40;99.90
15834;DHT22;8017;50.812;4.934;2023-01-25T01:50:54;1.50;99.90
15834;DHT22;8017;50.812;4.934;2023-01-25T01:54:01;1.60;99.90
15834;DHT22;8017;50.812;4.934;2023-01-25T01:57:06;1.60;99.90
15834;DHT22;8017;50.812;4.934;2023-01-25T02:00:12;1.60;99.90
15834;DHT22;8017;50.812;4.934;2023-01-25T02:03:15;1.60;99.90
15834;DHT22;8017;50.812;4.934;2023-01-25T02:06:25;1.60;99.90
15834;DHT22;8017;50.812;4.934;2023-01-25T02:09:31;1.60;99.90
15834;DHT22;8017;50.812;4.934;2023-01-25T02:12:34;1.60;99.90
15834;DHT22;8017;50.812;4.934;2023-01-25T02:15:40;1.70;99.90
15834;DHT22;8017;50.812;4.934;2023-01-25T02:18:43;1.70;99.90
15834;DHT22;8017;50.812;4.934;2023-01-25T02:21:46;1.60;99.90
15834;DHT22;8017;50.812;4.934;2023-01-25T02:25:00;1.70;99.90
15834;DHT22;8017;50.812;4.934;2023-01-25T02:28:07;1.60;99.90
15834;DHT22;8017;50.812;4.934;2023-01-25T02:31:11;1.60;99.90
15834;DHT22;8017;50.812;4.934;2023-01-25T02:34:13;1.50;99.90
15834;DHT22;8017;50.812;4.934;2023-01-25T02:37:15;1.50;99.90
15834;DHT22;8017;50.812;4.934;2023-01-25T02:40:18;1.50;99.90
15834;DHT22;8017;50.812;4.934;2023-01-25T02:43:20;1.50;99.90
15834;DHT22;8017;50.812;4.934;2023-01-25T02:46:25;1.50;99.90
15834;DHT22;8017;50.812;4.934;2023-01-25T02:49:28;1.50;99.90
15834;DHT22;8017;50.812;4.934;2023-01-25T02:52:30;1.50;99.90
15834;DHT22;8017;50.812;4.934;2023-01-25T02:55:33;1.30;99.90
15834;DHT22;8017;50.812;4.934;2023-01-25T02:58:35;1.30;99.90
15834;DHT22;8017;50.812;4.934;2023-01-25T03:01:38;1.50;99.90
15834;DHT22;8017;50.812;4.934;2023-01-25T03:04:40;1.40;99.90
15834;DHT22;8017;50.812;4.934;2023-01-25T03:07:42;1.30;99.90
15834;DHT22;8017;50.812;4.934;2023-01-25T03:10:45;1.40;99.90
15834;DHT22;8017;50.812;4.934;2023-01-25T03:13:47;1.40;99.90
15834;DHT22;8017;50.812;4.934;2023-01-25T03:16:49;1.30;99.90
15834;DHT22;8017;50.812;4.934;2023-01-25T03:19:51;1.40;99.90
15834;DHT22;8017;50.812;4.934;2023-01-25T03:22:54;1.40;99.90
15834;DHT22;8017;50.812;4.934;2023-01-25T03:26:05;1.50;99.90
15834;DHT22;8017;50.812;4.934;2023-01-25T03:29:07;1.40;99.90
15834;DHT22;8017;50.812;4.934;2023-01-25T03:32:10;1.40;99.90
15834;DHT22;8017;50.812;4.934;2023-01-25T03:35:12;1.40;99.90
15834;DHT22;8017;50.812;4.934;2023-01-25T03:38:13;1.40;99.90
15834;DHT22;8017;50.812;4.934;2023-01-25T03:41:17;1.40;99.90
15834;DHT22;8017;50.812;4.934;2023-01-25T03:44:19;1.50;99.90
15834;DHT22;8017;50.812;4.934;2023-01-25T03:47:21;1.40;99.90
15834;DHT22;8017;50.812;4.934;2023-01-25T03:50:22;1.40;99.90
15834;DHT22;8017;50.812;4.934;2023-01-25T03:53:25;1.30;99.90
15834;DHT22;8017;50.812;4.934;2023-01-25T03:56:31;1.30;99.90
15834;DHT22;8017;50.812;4.934;2023-01-25T03:59:33;1.30;99.90
15834;DHT22;8017;50.812;4.934;2023-01-25T04:02:35;1.40;99.90
15834;DHT22;8017;50.812;4.934;2023-01-25T04:05:37;1.30;99.90
15834;DHT22;8017;50.812;4.934;2023-01-25T04:08:39;1.30;99.90
15834;DHT22;8017;50.812;4.934;2023-01-25T04:11:42;1.40;99.90
15834;DHT22;8017;50.812;4.934;2023-01-25T04:14:44;1.30;99.90
15834;DHT22;8017;50.812;4.934;2023-01-25T04:17:46;1.20;99.90
15834;DHT22;8017;50.812;4.934;2023-01-25T04:20:51;1.30;99.90
15834;DHT22;8017;50.812;4.934;2023-01-25T04:23:54;1.30;99.90
15834;DHT22;8017;50.812;4.934;2023-01-25T04:26:57;1.30;99.90
15834;DHT22;8017;50.812;4.934;2023-01-25T04:29:59;1.30;99.90
15834;DHT22;8017;50.812;4.934;2023-01-25T04:33:04;1.20;99.90
15834;DHT22;8017;50.812;4.934;2023-01-25T04:36:07;1.30;99.90
15834;DHT22;8017;50.812;4.934;2023-01-25T04:39:08;1.20;99.90
15834;DHT22;8017;50.812;4.934;2023-01-25T04:42:12;1.30;99.90
15834;DHT22;8017;50.812;4.934;2023-01-25T04:45:14;1.30;99.90
15834;DHT22;8017;50.812;4.934;2023-01-25T04:48:16;1.20;99.90
15834;DHT22;8017;50.812;4.934;2023-01-25T04:51:18;1.30;99.90
15834;DHT22;8017;50.812;4.934;2023-01-25T04:54:20;1.30;99.90
15834;DHT22;8017;50.812;4.934;2023-01-25T04:57:23;1.40;99.90
15834;DHT22;8017;50.812;4.934;2023-01-25T05:00:26;1.40;99.90
15834;DHT22;8017;50.812;4.934;2023-01-25T05:03:28;1.30;99.90
15834;DHT22;8017;50.812;4.934;2023-01-25T05:06:30;1.30;99.90
15834;DHT22;8017;50.812;4.934;2023-01-25T05:09:32;1.30;99.90
15834;DHT22;8017;50.812;4.934;2023-01-25T05:12:36;1.30;99.90
15834;DHT22;8017;50.812;4.934;2023-01-25T05:15:38;1.30;99.90
15834;DHT22;8017;50.812;4.934;2023-01-25T05:18:39;1.30;99.90
15834;DHT22;8017;50.812;4.934;2023-01-25T05:21:41;1.30;99.90
15834;DHT22;8017;50.812;4.934;2023-01-25T05:24:58;1.30;99.90
15834;DHT22;8017;50.812;4.934;2023-01-25T05:28:05;1.40;99.90
15834;DHT22;8017;50.812;4.934;2023-01-25T05:31:06;1.30;99.90
15834;DHT22;8017;50.812;4.934;2023-01-25T05:34:08;1.40;99.90
15834;DHT22;8017;50.812;4.934;2023-01-25T05:37:13;1.30;99.90
15834;DHT22;8017;50.812;4.934;2023-01-25T05:40:15;1.30;99.90
15834;DHT22;8017;50.812;4.934;2023-01-25T05:43:18;1.30;99.90
15834;DHT22;8017;50.812;4.934;2023-01-25T05:46:20;1.40;99.90
15834;DHT22;8017;50.812;4.934;2023-01-25T05:49:22;1.30;99.90
15834;DHT22;8017;50.812;4.934;2023-01-25T05:52:24;1.30;99.90
15834;DHT22;8017;50.812;4.934;2023-01-25T05:55:26;1.30;99.90
15834;DHT22;8017;50.812;4.934;2023-01-25T05:58:29;1.20;99.90
15834;DHT22;8017;50.812;4.934;2023-01-25T06:01:31;1.20;99.90
15834;DHT22;8017;50.812;4.934;2023-01-25T06:04:33;1.30;99.90
15834;DHT22;8017;50.812;4.934;2023-01-25T06:07:35;1.30;99.90
15834;DHT22;8017;50.812;4.934;2023-01-25T06:10:37;1.30;99.90
15834;DHT22;8017;50.812;4.934;2023-01-25T06:13:40;1.30;99.90
15834;DHT22;8017;50.812;4.934;2023-01-25T06:16:42;1.30;99.90
15834;DHT22;8017;50.812;4.934;2023-01-25T06:19:44;1.30;99.90
15834;DHT22;8017;50.812;4.934;2023-01-25T06:22:48;1.30;99.90
15834;DHT22;8017;50.812;4.934;2023-01-25T06:25:50;1.30;99.90
15834;DHT22;8017;50.812;4.934;2023-01-25T06:28:56;1.20;99.90
15834;DHT22;8017;50.812;4.934;2023-01-25T06:31:58;1.30;99.90
15834;DHT22;8017;50.812;4.934;2023-01-25T06:34:59;1.30;99.90
15834;DHT22;8017;50.812;4.934;2023-01-25T06:38:01;1.30;99.90
15834;DHT22;8017;50.812;4.934;2023-01-25T06:41:05;1.20;99.90
15834;DHT22;8017;50.812;4.934;2023-01-25T06:44:09;1.20;99.90
15834;DHT22;8017;50.812;4.934;2023-01-25T06:47:11;1.20;99.90
15834;DHT22;8017;50.812;4.934;2023-01-25T06:50:13;1.30;99.90
15834;DHT22;8017;50.812;4.934;2023-01-25T06:53:15;1.20;99.90
15834;DHT22;8017;50.812;4.934;2023-01-25T06:56:19;1.10;99.90
15834;DHT22;8017;50.812;4.934;2023-01-25T06:59:22;0.90;99.90
15834;DHT22;8017;50.812;4.934;2023-01-25T07:02:24;1.00;99.90
15834;DHT22;8017;50.812;4.934;2023-01-25T07:05:26;1.10;99.90
15834;DHT22;8017;50.812;4.934;2023-01-25T07:08:29;1.20;99.90
15834;DHT22;8017;50.812;4.934;2023-01-25T07:11:31;1.10;99.90
15834;DHT22;8017;50.812;4.934;2023-01-25T07:14:34;1.20;99.90
15834;DHT22;8017;50.812;4.934;2023-01-25T07:17:36;1.10;99.90
15834;DHT22;8017;50.812;4.934;2023-01-25T07:20:38;1.10;99.90
15834;DHT22;8017;50.812;4.934;2023-01-25T07:23:41;1.10;99.90
15834;DHT22;8017;50.812;4.934;2023-01-25T07:26:43;1.10;99.90
15834;DHT22;8017;50.812;4.934;2023-01-25T07:29:47;1.00;99.90
15834;DHT22;8017;50.812;4.934;2023-01-25T07:32:48;1.00;99.90
15834;DHT22;8017;50.812;4.934;2023-01-25T07:35:50;0.90;99.90
15834;DHT22;8017;50.812;4.934;2023-01-25T07:38:54;1.00;99.90
15834;DHT22;8017;50.812;4.934;2023-01-25T07:41:56;1.00;99.90
15834;DHT22;8017;50.812;4.934;2023-01-25T07:44:59;1.00;99.90
15834;DHT22;8017;50.812;4.934;2023-01-25T07:48:07;1.00;99.90
15834;DHT22;8017;50.812;4.934;2023-01-25T07:51:09;1.00;99.90
15834;DHT22;8017;50.812;4.934;2023-01-25T07:54:16;1.10;99.90
15834;DHT22;8017;50.812;4.934;2023-01-25T07:57:17;1.10;99.90
15834;DHT22;8017;50.812;4.934;2023-01-25T08:00:21;1.10;99.90
15834;DHT22;8017;50.812;4.934;2023-01-25T08:03:23;1.10;99.90
15834;DHT22;8017;50.812;4.934;2023-01-25T08:06:26;1.00;99.90
15834;DHT22;8017;50.812;4.934;2023-01-25T08:09:30;1.00;99.90
15834;DHT22;8017;50.812;4.934;2023-01-25T08:12:32;1.00;99.90
15834;DHT22;8017;50.812;4.934;2023-01-25T08:15:35;0.80;99.90
15834;DHT22;8017;50.812;4.934;2023-01-25T08:18:39;0.90;99.90
15834;DHT22;8017;50.812;4.934;2023-01-25T08:21:41;0.90;99.90
15834;DHT22;8017;50.812;4.934;2023-01-25T08:24:43;0.80;99.90
15834;DHT22;8017;50.812;4.934;2023-01-25T08:27:45;0.80;99.90
15834;DHT22;8017;50.812;4.934;2023-01-25T08:30:48;0.90;99.90
15834;DHT22;8017;50.812;4.934;2023-01-25T08:33:50;0.70;99.90
15834;DHT22;8017;50.812;4.934;2023-01-25T08:36:52;0.70;99.90
15834;DHT22;8017;50.812;4.934;2023-01-25T08:39:54;0.70;99.90
15834;DHT22;8017;50.812;4.934;2023-01-25T08:42:59;0.70;99.90
15834;DHT22;8017;50.812;4.934;2023-01-25T08:46:02;0.70;99.90
15834;DHT22;8017;50.812;4.934;2023-01-25T08:49:05;0.70;99.90
15834;DHT22;8017;50.812;4.934;2023-01-25T08:52:07;0.80;99.90
15834;DHT22;8017;50.812;4.934;2023-01-25T08:55:09;0.80;99.90
15834;DHT22;8017;50.812;4.934;2023-01-25T08:58:11;0.70;99.90
15834;DHT22;8017;50.812;4.934;2023-01-25T09:01:16;0.70;99.90
15834;DHT22;8017;50.812;4.934;2023-01-25T09:04:19;0.80;99.90
15834;DHT22;8017;50.812;4.934;2023-01-25T09:07:21;0.60;99.90
15834;DHT22;8017;50.812;4.934;2023-01-25T09:10:22;0.70;99.90
15834;DHT22;8017;50.812;4.934;2023-01-25T09:13:24;0.70;99.90
15834;DHT22;8017;50.812;4.934;2023-01-25T09:16:28;0.90;99.90
15834;DHT22;8017;50.812;4.934;2023-01-25T09:19:30;0.90;99.90
15834;DHT22;8017;50.812;4.934;2023-01-25T09:22:32;1.00;99.90
15834;DHT22;8017;50.812;4.934;2023-01-25T09:25:34;1.00;99.90
15834;DHT22;8017;50.812;4.934;2023-01-25T09:28:36;0.90;99.90
15834;DHT22;8017;50.812;4.934;2023-01-25T09:31:39;0.90;99.90
15834;DHT22;8017;50.812;4.934;2023-01-25T09:34:43;1.00;99.90
15834;DHT22;8017;50.812;4.934;2023-01-25T09:37:49;0.80;99.90
15834;DHT22;8017;50.812;4.934;2023-01-25T09:41:01;0.90;99.90
15834;DHT22;8017;50.812;4.934;2023-01-25T09:44:21;0.70;99.90
15834;DHT22;8017;50.812;4.934;2023-01-25T09:47:29;0.70;99.90
15834;DHT22;8017;50.812;4.934;2023-01-25T09:50:37;0.80;99.90
15834;DHT22;8017;50.812;4.934;2023-01-25T09:53:47;0.80;99.90
15834;DHT22;8017;50.812;4.934;2023-01-25T09:56:50;0.80;99.90
15834;DHT22;8017;50.812;4.934;2023-01-25T09:59:53;0.70;99.90
15834;DHT22;8017;50.812;4.934;2023-01-25T10:03:02;0.70;99.90
15834;DHT22;8017;50.812;4.934;2023-01-25T10:06:10;0.70;99.90
15834;DHT22;8017;50.812;4.934;2023-01-25T10:09:23;0.80;99.90
15834;DHT22;8017;50.812;4.934;2023-01-25T10:12:32;0.90;99.90
15834;DHT22;8017;50.812;4.934;2023-01-25T10:15:38;0.90;99.90
15834;DHT22;8017;50.812;4.934;2023-01-25T10:22:45;1.00;99.90
15834;DHT22;8017;50.812;4.934;2023-01-25T10:25:55;0.90;99.90
15834;DHT22;8017;50.812;4.934;2023-01-25T10:29:02;0.90;99.90
15834;DHT22;8017;50.812;4.934;2023-01-25T10:32:14;0.80;99.90
15834;DHT22;8017;50.812;4.934;2023-01-25T10:35:18;0.90;99.90
15834;DHT22;8017;50.812;4.934;2023-01-25T10:38:25;1.00;99.90
15834;DHT22;8017;50.812;4.934;2023-01-25T10:41:35;0.90;99.90
15834;DHT22;8017;50.812;4.934;2023-01-25T10:44:38;0.80;99.90
15834;DHT22;8017;50.812;4.934;2023-01-25T10:47:42;0.80;99.90
15834;DHT22;8017;50.812;4.934;2023-01-25T10:50:47;0.80;99.90
15834;DHT22;8017;50.812;4.934;2023-01-25T10:53:58;0.90;99.90
15834;DHT22;8017;50.812;4.934;2023-01-25T10:57:00;0.80;99.90
15834;DHT22;8017;50.812;4.934;2023-01-25T11:00:05;0.90;99.90
15834;DHT22;8017;50.812;4.934;2023-01-25T11:03:18;0.70;99.90
15834;DHT22;8017;50.812;4.934;2023-01-25T11:06:33;0.70;99.90
15834;DHT22;8017;50.812;4.934;2023-01-25T11:09:37;0.60;99.90
15834;DHT22;8017;50.812;4.934;2023-01-25T11:12:39;0.60;99.90
15834;DHT22;8017;50.812;4.934;2023-01-25T11:15:42;0.60;99.90
15834;DHT22;8017;50.812;4.934;2023-01-25T11:18:50;0.70;99.90
15834;DHT22;8017;50.812;4.934;2023-01-25T11:21:53;0.60;99.90
15834;DHT22;8017;50.812;4.934;2023-01-25T11:24:57;0.70;99.90
15834;DHT22;8017;50.812;4.934;2023-01-25T11:28:18;0.70;99.90
15834;DHT22;8017;50.812;4.934;2023-01-25T11:31:21;0.70;99.90
15834;DHT22;8017;50.812;4.934;2023-01-25T11:34:25;0.80;99.90
15834;DHT22;8017;50.812;4.934;2023-01-25T11:37:37;0.80;99.90
15834;DHT22;8017;50.812;4.934;2023-01-25T11:40:48;0.90;99.90
15834;DHT22;8017;50.812;4.934;2023-01-25T11:44:15;1.00;99.90
15834;DHT22;8017;50.812;4.934;2023-01-25T11:47:28;0.80;99.90
15834;DHT22;8017;50.812;4.934;2023-01-25T11:50:37;0.80;99.90
15834;DHT22;8017;50.812;4.934;2023-01-25T11:53:57;0.90;99.90
15834;DHT22;8017;50.812;4.934;2023-01-25T11:57:07;1.00;99.90
15834;DHT22;8017;50.812;4.934;2023-01-25T12:00:29;0.90;99.90
15834;DHT22;8017;50.812;4.934;2023-01-25T12:07:27;0.80;99.90
15834;DHT22;8017;50.812;4.934;2023-01-25T12:10:38;0.90;99.90
15834;DHT22;8017;50.812;4.934;2023-01-25T12:13:55;1.00;99.90
15834;DHT22;8017;50.812;4.934;2023-01-25T12:17:17;1.00;99.90
15834;DHT22;8017;50.812;4.934;2023-01-25T12:20:30;1.10;99.90
15834;DHT22;8017;50.812;4.934;2023-01-25T12:23:53;0.90;99.90
15834;DHT22;8017;50.812;4.934;2023-01-25T12:27:07;0.80;99.90
15834;DHT22;8017;50.812;4.934;2023-01-25T12:30:16;0.70;99.90
15834;DHT22;8017;50.812;4.934;2023-01-25T12:33:26;0.80;99.90
15834;DHT22;8017;50.812;4.934;2023-01-25T12:36:32;1.00;99.90
15834;DHT22;8017;50.812;4.934;2023-01-25T12:39:39;1.10;99.90
15834;DHT22;8017;50.812;4.934;2023-01-25T12:42:46;1.00;99.90
15834;DHT22;8017;50.812;4.934;2023-01-25T12:45:52;1.10;99.90
15834;DHT22;8017;50.812;4.934;2023-01-25T12:48:58;0.90;99.90
15834;DHT22;8017;50.812;4.934;2023-01-25T12:52:12;0.90;99.90
15834;DHT22;8017;50.812;4.934;2023-01-25T12:55:17;0.90;99.90
15834;DHT22;8017;50.812;4.934;2023-01-25T12:58:25;0.80;99.90
15834;DHT22;8017;50.812;4.934;2023-01-25T13:01:34;0.80;99.90
15834;DHT22;8017;50.812;4.934;2023-01-25T13:04:49;0.60;99.90
15834;DHT22;8017;50.812;4.934;2023-01-25T13:08:01;0.70;99.90
15834;DHT22;8017;50.812;4.934;2023-01-25T13:11:12;0.80;99.90
15834;DHT22;8017;50.812;4.934;2023-01-25T13:14:28;0.80;99.90
15834;DHT22;8017;50.812;4.934;2023-01-25T13:17:32;0.80;99.90
15834;DHT22;8017;50.812;4.934;2023-01-25T13:20:48;0.70;99.90
15834;DHT22;8017;50.812;4.934;2023-01-25T13:24:16;0.50;99.90
15834;DHT22;8017;50.812;4.934;2023-01-25T13:27:25;0.50;99.90
15834;DHT22;8017;50.812;4.934;2023-01-25T13:30:31;0.50;99.90
15834;DHT22;8017;50.812;4.934;2023-01-25T13:33:35;0.50;99.90
15834;DHT22;8017;50.812;4.934;2023-01-25T13:36:44;0.50;99.90
15834;DHT22;8017;50.812;4.934;2023-01-25T13:39:47;0.60;99.90
15834;DHT22;8017;50.812;4.934;2023-01-25T13:42:58;0.40;99.90
15834;DHT22;8017;50.812;4.934;2023-01-25T13:46:03;0.30;99.90
15834;DHT22;8017;50.812;4.934;2023-01-25T13:49:20;0.30;99.90
15834;DHT22;8017;50.812;4.934;2023-01-25T13:52:24;0.20;99.90
15834;DHT22;8017;50.812;4.934;2023-01-25T13:55:28;0.20;99.90
15834;DHT22;8017;50.812;4.934;2023-01-25T13:58:33;0.30;99.90
15834;DHT22;8017;50.812;4.934;2023-01-25T14:01:36;0.60;99.90
15834;DHT22;8017;50.812;4.934;2023-01-25T14:04:39;0.60;99.90
15834;DHT22;8017;50.812;4.934;2023-01-25T14:07:42;0.50;99.90
15834;DHT22;8017;50.812;4.934;2023-01-25T14:10:47;0.60;99.90
15834;DHT22;8017;50.812;4.934;2023-01-25T14:13:57;0.70;99.90
15834;DHT22;8017;50.812;4.934;2023-01-25T14:17:02;0.80;99.90
15834;DHT22;8017;50.812;4.934;2023-01-25T14:20:16;0.80;99.90
15834;DHT22;8017;50.812;4.934;2023-01-25T14:23:23;0.70;99.90
15834;DHT22;8017;50.812;4.934;2023-01-25T14:26:27;0.80;99.90
15834;DHT22;8017;50.812;4.934;2023-01-25T14:29:32;0.60;99.90
15834;DHT22;8017;50.812;4.934;2023-01-25T14:32:34;0.60;99.90
15834;DHT22;8017;50.812;4.934;2023-01-25T14:35:40;0.70;99.90
15834;DHT22;8017;50.812;4.934;2023-01-25T14:38:42;0.50;99.90
15834;DHT22;8017;50.812;4.934;2023-01-25T14:41:44;0.50;99.90
15834;DHT22;8017;50.812;4.934;2023-01-25T14:44:51;0.30;99.90
15834;DHT22;8017;50.812;4.934;2023-01-25T14:47:53;0.20;99.90
15834;DHT22;8017;50.812;4.934;2023-01-25T14:51:04;0.10;99.90
15834;DHT22;8017;50.812;4.934;2023-01-25T14:54:14;0.30;99.90
15834;DHT22;8017;50.812;4.934;2023-01-25T14:57:32;0.20;99.90
15834;DHT22;8017;50.812;4.934;2023-01-25T15:00:36;0.30;99.90
15834;DHT22;8017;50.812;4.934;2023-01-25T15:03:41;0.20;99.90
15834;DHT22;8017;50.812;4.934;2023-01-25T15:06:47;0.30;99.90
15834;DHT22;8017;50.812;4.934;2023-01-25T15:10:02;0.40;99.90
15834;DHT22;8017;50.812;4.934;2023-01-25T15:13:19;0.40;99.90
15834;DHT22;8017;50.812;4.934;2023-01-25T15:16:31;0.50;99.90
15834;DHT22;8017;50.812;4.934;2023-01-25T15:19:33;0.60;99.90
15834;DHT22;8017;50.812;4.934;2023-01-25T15:22:37;0.60;99.90
15834;DHT22;8017;50.812;4.934;2023-01-25T15:25:48;0.40;99.90
15834;DHT22;8017;50.812;4.934;2023-01-25T15:28:52;0.50;99.90
15834;DHT22;8017;50.812;4.934;2023-01-25T15:31:55;0.50;99.90
15834;DHT22;8017;50.812;4.934;2023-01-25T15:34:57;0.40;99.90
15834;DHT22;8017;50.812;4.934;2023-01-25T15:38:00;0.30;99.90
15834;DHT22;8017;50.812;4.934;2023-01-25T15:41:02;0.20;99.90
15834;DHT22;8017;50.812;4.934;2023-01-25T15:44:04;0.30;99.90
15834;DHT22;8017;50.812;4.934;2023-01-25T15:47:08;0.30;99.90
15834;DHT22;8017;50.812;4.934;2023-01-25T15:50:16;0.40;99.90
15834;DHT22;8017;50.812;4.934;2023-01-25T15:53:20;0.40;99.90
15834;DHT22;8017;50.812;4.934;2023-01-25T15:56:24;0.20;99.90
15834;DHT22;8017;50.812;4.934;2023-01-25T15:59:28;0.20;99.90
15834;DHT22;8017;50.812;4.934;2023-01-25T16:02:29;0.10;99.90
15834;DHT22;8017;50.812;4.934;2023-01-25T16:05:31;0.00;99.90
15834;DHT22;8017;50.812;4.934;2023-01-25T16:08:35;-0.10;99.90
15834;DHT22;8017;50.812;4.934;2023-01-25T16:11:37;0.10;99.90
15834;DHT22;8017;50.812;4.934;2023-01-25T16:14:39;0.10;99.90
15834;DHT22;8017;50.812;4.934;2023-01-25T16:17:41;0.00;99.90
15834;DHT22;8017;50.812;4.934;2023-01-25T16:20:43;0.10;99.90
15834;DHT22;8017;50.812;4.934;2023-01-25T16:23:46;0.10;99.90
15834;DHT22;8017;50.812;4.934;2023-01-25T16:26:50;0.10;99.90
15834;DHT22;8017;50.812;4.934;2023-01-25T16:29:54;0.10;99.90
15834;DHT22;8017;50.812;4.934;2023-01-25T16:32:56;-0.20;99.90
15834;DHT22;8017;50.812;4.934;2023-01-25T16:36:09;-0.30;99.90
15834;DHT22;8017;50.812;4.934;2023-01-25T16:39:16;-0.20;99.90
15834;DHT22;8017;50.812;4.934;2023-01-25T16:42:19;-0.20;99.90
15834;DHT22;8017;50.812;4.934;2023-01-25T16:45:21;-0.20;99.90
15834;DHT22;8017;50.812;4.934;2023-01-25T16:48:24;-0.30;99.90
15834;DHT22;8017;50.812;4.934;2023-01-25T16:51:27;-0.30;99.90
15834;DHT22;8017;50.812;4.934;2023-01-25T16:54:30;-0.30;99.90
15834;DHT22;8017;50.812;4.934;2023-01-25T16:57:32;-0.40;99.90
15834;DHT22;8017;50.812;4.934;2023-01-25T17:00:34;-0.40;99.90
15834;DHT22;8017;50.812;4.934;2023-01-25T17:03:36;-0.30;99.90
15834;DHT22;8017;50.812;4.934;2023-01-25T17:06:40;-0.30;99.90
15834;DHT22;8017;50.812;4.934;2023-01-25T17:09:44;-0.20;99.90
15834;DHT22;8017;50.812;4.934;2023-01-25T17:12:46;-0.20;99.90
15834;DHT22;8017;50.812;4.934;2023-01-25T17:15:48;-0.30;99.90
15834;DHT22;8017;50.812;4.934;2023-01-25T17:18:53;-0.20;99.90
15834;DHT22;8017;50.812;4.934;2023-01-25T17:21:55;0.00;99.90
15834;DHT22;8017;50.812;4.934;2023-01-25T17:25:00;0.10;99.90
15834;DHT22;8017;50.812;4.934;2023-01-25T17:28:02;0.10;99.90
15834;DHT22;8017;50.812;4.934;2023-01-25T17:31:04;0.10;99.90
15834;DHT22;8017;50.812;4.934;2023-01-25T17:34:07;0.10;99.90
15834;DHT22;8017;50.812;4.934;2023-01-25T17:37:11;0.10;99.90
15834;DHT22;8017;50.812;4.934;2023-01-25T17:40:14;0.20;99.90
15834;DHT22;8017;50.812;4.934;2023-01-25T17:43:16;0.20;99.90
15834;DHT22;8017;50.812;4.934;2023-01-25T17:46:21;0.20;99.90
15834;DHT22;8017;50.812;4.934;2023-01-25T17:49:24;0.20;99.90
15834;DHT22;8017;50.812;4.934;2023-01-25T17:52:28;0.20;99.90
15834;DHT22;8017;50.812;4.934;2023-01-25T17:55:34;0.20;99.90
15834;DHT22;8017;50.812;4.934;2023-01-25T17:58:37;0.40;99.90
15834;DHT22;8017;50.812;4.934;2023-01-25T18:01:39;0.40;99.90
15834;DHT22;8017;50.812;4.934;2023-01-25T18:04:43;0.30;99.90
15834;DHT22;8017;50.812;4.934;2023-01-25T18:07:45;0.40;99.90
15834;DHT22;8017;50.812;4.934;2023-01-25T18:10:48;0.40;99.90
15834;DHT22;8017;50.812;4.934;2023-01-25T18:13:51;0.50;99.90
15834;DHT22;8017;50.812;4.934;2023-01-25T18:16:54;0.50;99.90
15834;DHT22;8017;50.812;4.934;2023-01-25T18:19:56;0.50;99.90
15834;DHT22;8017;50.812;4.934;2023-01-25T18:22:58;0.40;99.90
15834;DHT22;8017;50.812;4.934;2023-01-25T18:26:02;0.40;99.90
15834;DHT22;8017;50.812;4.934;2023-01-25T18:29:29;0.30;99.90
15834;DHT22;8017;50.812;4.934;2023-01-25T18:32:31;0.30;99.90
15834;DHT22;8017;50.812;4.934;2023-01-25T18:35:34;0.30;99.90
15834;DHT22;8017;50.812;4.934;2023-01-25T18:38:36;0.10;99.90
15834;DHT22;8017;50.812;4.934;2023-01-25T18:41:39;0.10;99.90
15834;DHT22;8017;50.812;4.934;2023-01-25T18:44:41;0.20;99.90
15834;DHT22;8017;50.812;4.934;2023-01-25T18:47:47;0.00;99.90
15834;DHT22;8017;50.812;4.934;2023-01-25T18:50:52;-0.20;99.90
15834;DHT22;8017;50.812;4.934;2023-01-25T18:53:54;-0.20;99.90
15834;DHT22;8017;50.812;4.934;2023-01-25T18:56:57;-0.10;99.90
15834;DHT22;8017;50.812;4.934;2023-01-25T18:59:59;-0.20;99.90
15834;DHT22;8017;50.812;4.934;2023-01-25T19:03:01;-0.20;99.90
15834;DHT22;8017;50.812;4.934;2023-01-25T19:06:04;-0.20;99.90
15834;DHT22;8017;50.812;4.934;2023-01-25T19:09:06;-0.10;99.90
15834;DHT22;8017;50.812;4.934;2023-01-25T19:12:09;0.10;99.90
15834;DHT22;8017;50.812;4.934;2023-01-25T19:15:11;0.10;99.90
15834;DHT22;8017;50.812;4.934;2023-01-25T19:18:13;0.10;99.90
15834;DHT22;8017;50.812;4.934;2023-01-25T19:21:17;0.20;99.90
15834;DHT22;8017;50.812;4.934;2023-01-25T19:24:19;0.10;99.90
15834;DHT22;8017;50.812;4.934;2023-01-25T19:27:22;-0.20;99.90
15834;DHT22;8017;50.812;4.934;2023-01-25T19:30:24;-0.20;99.90
15834;DHT22;8017;50.812;4.934;2023-01-25T19:33:26;-0.10;99.90
15834;DHT22;8017;50.812;4.934;2023-01-25T19:36:30;-0.10;99.90
15834;DHT22;8017;50.812;4.934;2023-01-25T19:39:32;-0.20;99.90
15834;DHT22;8017;50.812;4.934;2023-01-25T19:42:35;-0.30;99.90
15834;DHT22;8017;50.812;4.934;2023-01-25T19:45:37;-0.40;99.90
15834;DHT22;8017;50.812;4.934;2023-01-25T19:48:39;-0.40;99.90
15834;DHT22;8017;50.812;4.934;2023-01-25T19:51:42;-0.30;99.90
15834;DHT22;8017;50.812;4.934;2023-01-25T19:54:48;-0.30;99.90
15834;DHT22;8017;50.812;4.934;2023-01-25T19:57:51;-0.30;99.90
15834;DHT22;8017;50.812;4.934;2023-01-25T20:00:53;-0.30;99.90
15834;DHT22;8017;50.812;4.934;2023-01-25T20:03:56;-0.20;99.90
15834;DHT22;8017;50.812;4.934;2023-01-25T20:06:59;-0.30;99.90
15834;DHT22;8017;50.812;4.934;2023-01-25T20:10:01;-0.30;99.90